createdAt,value
2017-07-23T00:01:24.838Z,11.80
2017-07-23T00:03:51.234Z,13.00
2017-07-23T00:06:17.648Z,12.10
2017-07-23T00:08:44.020Z,12.60
2017-07-23T00:11:10.387Z,12.10
2017-07-23T00:13:37.555Z,11.77
2017-07-23T00:16:03.995Z,12.07
2017-07-23T00:18:30.412Z,12.77
2017-07-23T00:20:56.807Z,12.23
2017-07-23T00:23:23.320Z,11.60
2017-07-23T00:25:49.699Z,12.90
2017-07-23T00:28:16.843Z,12.37
2017-07-23T00:30:43.238Z,11.63
2017-07-23T00:33:09.627Z,12.10
2017-07-23T00:35:36.031Z,12.30
2017-07-23T00:38:02.667Z,12.77
2017-07-23T00:40:29.050Z,13.33
2017-07-23T00:42:55.427Z,10.27
2017-07-23T00:45:21.898Z,12.90
2017-07-23T00:47:48.272Z,14.03
2017-07-23T00:50:14.746Z,12.70
2017-07-23T00:52:41.907Z,12.20
2017-07-23T00:55:08.300Z,11.70
2017-07-23T00:57:34.669Z,11.60
2017-07-23T01:00:01.087Z,11.67
2017-07-23T01:02:27.506Z,10.07
2017-07-23T01:04:53.908Z,9.13
2017-07-23T01:07:21.198Z,10.30
2017-07-23T01:09:47.628Z,9.80
2017-07-23T01:12:14.181Z,9.97
2017-07-23T01:14:43.076Z,9.67
2017-07-23T01:17:10.211Z,8.50
2017-07-23T01:19:37.375Z,9.40
2017-07-23T01:22:04.520Z,8.33
2017-07-23T01:24:31.732Z,9.37
2017-07-23T01:26:58.166Z,9.03
2017-07-23T01:29:24.551Z,9.53
2017-07-23T01:31:51.707Z,8.73
2017-07-23T01:34:18.131Z,10.07
2017-07-23T01:36:46.173Z,9.30
2017-07-23T01:39:13.000Z,9.80
2017-07-23T01:41:39.424Z,9.77
2017-07-23T01:44:05.827Z,10.23
2017-07-23T01:46:32.379Z,10.47
2017-07-23T01:48:59.002Z,9.80
2017-07-23T01:51:25.431Z,8.80
2017-07-23T01:53:51.855Z,10.30
2017-07-23T01:56:18.258Z,9.77
2017-07-23T01:58:44.819Z,10.03
2017-07-23T02:01:11.919Z,10.53
2017-07-23T02:03:38.287Z,10.93
2017-07-23T02:06:05.460Z,9.30
2017-07-23T02:08:31.836Z,9.43
2017-07-23T02:10:58.278Z,9.10
2017-07-23T02:13:24.752Z,9.40
2017-07-23T02:15:51.239Z,9.90
2017-07-23T02:18:17.816Z,9.70
2017-07-23T02:20:44.950Z,10.93
2017-07-23T02:23:11.457Z,10.43
2017-07-23T02:25:37.831Z,10.03
2017-07-23T02:28:05.115Z,9.60
2017-07-23T02:30:31.823Z,10.00
2017-07-23T02:32:58.216Z,10.97
2017-07-23T02:35:24.634Z,10.70
2017-07-23T02:37:52.297Z,10.47
2017-07-23T02:40:18.703Z,10.30
2017-07-23T02:42:45.151Z,10.73
2017-07-23T02:45:11.751Z,10.07
2017-07-23T02:47:38.864Z,10.37
2017-07-23T02:50:05.248Z,9.90
2017-07-23T02:52:31.646Z,10.80
2017-07-23T02:54:58.646Z,10.63
2017-07-23T02:57:25.055Z,10.27
2017-07-23T02:59:51.455Z,10.10
2017-07-23T03:02:18.115Z,10.63
2017-07-23T03:04:45.250Z,9.93
2017-07-23T03:07:11.671Z,11.30
2017-07-23T03:09:38.109Z,11.17
2017-07-23T03:12:04.662Z,11.70
2017-07-23T03:14:31.906Z,10.50
2017-07-23T03:16:59.087Z,11.57
2017-07-23T03:19:32.803Z,10.87
2017-07-23T03:21:59.235Z,10.67
2017-07-23T03:24:25.651Z,11.77
2017-07-23T03:26:52.091Z,9.97
2017-07-23T03:29:18.711Z,11.33
2017-07-23T03:31:45.215Z,10.80
2017-07-23T03:34:11.757Z,9.97
2017-07-23T03:36:38.270Z,10.83
2017-07-23T03:39:04.754Z,11.50
2017-07-23T03:41:31.223Z,12.00
2017-07-23T03:43:57.927Z,11.50
2017-07-23T03:46:24.342Z,11.63
2017-07-23T03:48:51.499Z,11.20
2017-07-23T03:51:18.647Z,11.27
2017-07-23T03:53:45.024Z,11.90
2017-07-23T03:56:11.418Z,11.67
2017-07-23T03:58:38.784Z,11.00
2017-07-23T04:01:05.247Z,12.13
2017-07-23T04:03:31.666Z,12.67
2017-07-23T04:05:58.087Z,10.90
2017-07-23T04:08:24.502Z,11.63
2017-07-23T04:10:50.981Z,11.80
2017-07-23T04:13:17.403Z,12.10
2017-07-23T04:15:43.799Z,11.27
2017-07-23T04:18:11.597Z,11.70
2017-07-23T04:20:38.028Z,11.80
2017-07-23T04:23:04.625Z,11.00
2017-07-23T04:25:31.167Z,13.43
2017-07-23T04:27:57.659Z,11.73
2017-07-23T04:30:24.039Z,12.10
2017-07-23T04:32:51.188Z,12.60
2017-07-23T04:35:18.296Z,11.40
2017-07-23T04:37:44.727Z,11.87
2017-07-23T04:40:11.122Z,11.43
2017-07-23T04:42:37.636Z,12.17
2017-07-23T04:45:04.171Z,11.50
2017-07-23T04:47:31.291Z,12.67
2017-07-23T04:49:57.690Z,11.87
2017-07-23T04:52:24.083Z,11.97
2017-07-23T04:54:51.247Z,11.80
2017-07-23T04:57:17.638Z,11.33
2017-07-23T04:59:44.042Z,11.67
2017-07-23T05:02:10.540Z,12.07
2017-07-23T05:04:36.930Z,11.10
2017-07-23T05:07:03.323Z,11.33
2017-07-23T05:09:29.715Z,11.50
2017-07-23T05:11:57.058Z,12.50
2017-07-23T05:14:23.432Z,12.70
2017-07-23T05:16:49.934Z,12.03
2017-07-23T05:19:16.390Z,12.73
2017-07-23T05:21:42.922Z,11.87
2017-07-23T05:24:09.383Z,12.10
2017-07-23T05:26:36.027Z,12.90
2017-07-23T05:29:02.520Z,12.20
2017-07-23T05:31:29.632Z,11.83
2017-07-23T05:33:56.039Z,12.87
2017-07-23T05:36:22.435Z,12.53
2017-07-23T05:38:49.554Z,13.30
2017-07-23T05:41:16.257Z,12.80
2017-07-23T05:43:42.894Z,12.23
2017-07-23T05:46:09.356Z,12.13
2017-07-23T05:48:35.752Z,12.63
2017-07-23T05:51:02.160Z,13.00
2017-07-23T05:53:29.324Z,13.20
2017-07-23T05:55:55.767Z,13.57
2017-07-23T05:58:22.159Z,12.13
2017-07-23T06:00:48.594Z,12.00
2017-07-23T06:03:14.966Z,12.03
2017-07-23T06:05:41.587Z,12.70
2017-07-23T06:08:07.964Z,13.50
2017-07-23T06:10:34.326Z,13.07
2017-07-23T06:13:00.815Z,13.23
2017-07-23T06:15:27.259Z,12.27
2017-07-23T06:17:53.668Z,12.07
2017-07-23T06:20:20.064Z,11.83
2017-07-23T06:22:47.188Z,11.97
2017-07-23T06:25:13.616Z,12.73
2017-07-23T06:27:40.012Z,13.93
2017-07-23T06:30:06.419Z,14.90
2017-07-23T06:32:32.827Z,14.43
2017-07-23T06:34:59.238Z,13.80
2017-07-23T06:37:25.662Z,13.97
2017-07-23T06:39:52.078Z,12.50
2017-07-23T06:42:18.482Z,12.87
2017-07-23T06:44:45.031Z,12.90
2017-07-23T06:47:11.426Z,14.13
2017-07-23T06:49:37.837Z,12.00
2017-07-23T06:52:04.239Z,11.20
2017-07-23T06:54:30.607Z,13.23
2017-07-23T06:56:57.023Z,14.77
2017-07-23T06:59:23.448Z,11.57
2017-07-23T07:01:49.855Z,11.77
2017-07-23T07:04:16.300Z,11.57
2017-07-23T07:06:42.662Z,12.17
2017-07-23T07:09:09.038Z,12.53
2017-07-23T07:11:36.180Z,11.53
2017-07-23T07:14:02.646Z,12.40
2017-07-23T07:16:29.100Z,12.53
2017-07-23T07:18:56.388Z,11.73
2017-07-23T07:21:23.650Z,14.50
2017-07-23T07:23:50.132Z,20.80
2017-07-23T07:26:16.596Z,20.40
2017-07-23T07:28:42.972Z,14.80
2017-07-23T07:31:09.769Z,11.93
2017-07-23T07:33:36.198Z,9.90
2017-07-23T07:36:02.607Z,12.07
2017-07-23T07:38:28.987Z,11.00
2017-07-23T07:40:55.360Z,11.33
2017-07-23T07:43:21.818Z,8.60
2017-07-23T07:45:48.207Z,11.40
2017-07-23T07:48:14.591Z,10.10
2017-07-23T07:50:41.004Z,10.00
2017-07-23T07:53:07.364Z,10.90
2017-07-23T07:55:33.783Z,11.60
2017-07-23T07:58:00.700Z,11.80
2017-07-23T08:00:28.184Z,11.00
2017-07-23T08:02:54.845Z,12.50
2017-07-23T08:05:21.308Z,11.97
2017-07-23T08:07:47.919Z,11.67
2017-07-23T08:10:14.363Z,11.10
2017-07-23T08:12:41.515Z,11.83
2017-07-23T08:15:09.066Z,10.73
2017-07-23T08:17:35.572Z,11.60
2017-07-23T08:20:02.334Z,12.17
2017-07-23T08:22:29.034Z,10.47
2017-07-23T08:24:55.435Z,9.50
2017-07-23T08:27:22.095Z,10.53
2017-07-23T08:29:49.277Z,10.07
2017-07-23T08:32:15.999Z,10.43
2017-07-23T08:34:42.896Z,9.80
2017-07-23T08:37:09.619Z,9.17
2017-07-23T08:39:36.270Z,8.97
2017-07-23T08:42:02.751Z,9.70
2017-07-23T08:44:29.495Z,9.17
2017-07-23T08:46:55.936Z,9.60
2017-07-23T08:49:23.743Z,11.20
2017-07-23T08:51:50.305Z,9.40
2017-07-23T08:54:16.792Z,8.53
2017-07-23T08:56:43.383Z,10.10
2017-07-23T08:59:09.916Z,9.80
2017-07-23T09:01:36.286Z,11.73
2017-07-23T09:04:02.675Z,9.70
2017-07-23T09:06:29.059Z,10.07
2017-07-23T09:08:55.447Z,9.67
2017-07-23T09:11:21.814Z,10.67
2017-07-23T09:13:48.251Z,8.90
2017-07-23T09:16:14.631Z,9.37
2017-07-23T09:18:41.015Z,8.40
2017-07-23T09:21:07.436Z,8.10
2017-07-23T09:23:33.863Z,8.30
2017-07-23T09:26:00.367Z,8.80
2017-07-23T09:28:26.762Z,9.10
2017-07-23T09:30:53.171Z,9.80
2017-07-23T09:33:20.075Z,10.17
2017-07-23T09:35:46.469Z,8.97
2017-07-23T09:38:12.831Z,9.53
2017-07-23T09:40:39.530Z,10.23
2017-07-23T09:43:06.483Z,10.00
2017-07-23T09:45:33.010Z,11.20
2017-07-23T09:47:59.390Z,9.10
2017-07-23T09:50:32.842Z,9.57
2017-07-23T09:53:00.343Z,11.23
2017-07-23T09:55:26.783Z,10.07
2017-07-23T09:57:53.175Z,15.30
2017-07-23T10:00:19.606Z,9.73
2017-07-23T10:02:46.395Z,11.30
2017-07-23T10:05:13.175Z,12.80
2017-07-23T10:07:39.574Z,9.73
2017-07-23T10:10:05.943Z,10.93
2017-07-23T10:12:32.382Z,9.07
2017-07-23T10:14:58.812Z,9.43
2017-07-23T10:17:25.215Z,9.30
2017-07-23T10:19:51.579Z,9.40
2017-07-23T10:22:18.433Z,9.17
2017-07-23T10:24:44.877Z,9.53
2017-07-23T10:27:12.036Z,10.03
2017-07-23T10:29:38.836Z,10.60
2017-07-23T10:32:05.256Z,12.20
2017-07-23T10:34:31.923Z,11.80
2017-07-23T10:36:58.572Z,10.23
2017-07-23T10:39:25.155Z,11.80
2017-07-23T10:41:51.842Z,11.87
2017-07-23T10:44:19.104Z,12.00
2017-07-23T10:46:45.567Z,10.97
2017-07-23T10:49:12.803Z,10.73
2017-07-23T10:51:39.275Z,12.07
2017-07-23T10:54:05.869Z,13.33
2017-07-23T10:56:32.543Z,10.87
2017-07-23T10:58:59.139Z,11.10
2017-07-23T11:01:25.719Z,10.90
2017-07-23T11:03:52.244Z,11.57
2017-07-23T11:06:18.977Z,10.97
2017-07-23T11:08:45.666Z,11.10
2017-07-23T11:11:12.208Z,11.67
2017-07-23T11:13:39.454Z,9.90
2017-07-23T11:16:05.902Z,9.87
2017-07-23T11:18:32.331Z,9.50
2017-07-23T11:20:59.515Z,8.30
2017-07-23T11:23:26.057Z,9.13
2017-07-23T11:25:52.450Z,10.70
2017-07-23T11:28:19.268Z,10.30
2017-07-23T11:30:45.752Z,10.57
2017-07-23T11:33:12.232Z,10.50
2017-07-23T11:35:38.672Z,7.67
2017-07-23T11:38:05.067Z,7.30
2017-07-23T11:40:32.088Z,6.50
2017-07-23T11:42:58.519Z,5.47
2017-07-23T11:45:25.671Z,5.60
2017-07-23T11:47:52.395Z,5.63
2017-07-23T11:50:19.223Z,5.67
2017-07-23T11:52:45.850Z,4.47
2017-07-23T11:55:13.006Z,5.60
2017-07-23T11:57:39.920Z,5.30
2017-07-23T12:00:06.679Z,4.33
2017-07-23T12:02:33.360Z,3.90
2017-07-23T12:04:59.989Z,4.93
2017-07-23T12:07:29.489Z,5.23
2017-07-23T12:09:56.043Z,5.03
2017-07-23T12:12:22.568Z,6.00
2017-07-23T12:14:49.131Z,4.93
2017-07-23T12:17:15.548Z,6.10
2017-07-23T12:19:41.952Z,4.87
2017-07-23T12:22:08.509Z,5.23
2017-07-23T12:24:35.277Z,5.37
2017-07-23T12:27:02.074Z,5.97
2017-07-23T12:29:28.794Z,6.13
2017-07-23T12:31:55.517Z,4.20
2017-07-23T12:34:22.095Z,5.43
2017-07-23T12:36:48.601Z,4.87
2017-07-23T12:39:15.189Z,5.10
2017-07-23T12:41:41.872Z,5.80
2017-07-23T12:44:08.348Z,7.37
2017-07-23T12:46:34.841Z,10.00
2017-07-23T12:49:02.218Z,12.97
2017-07-23T12:51:28.743Z,12.40
2017-07-23T12:53:55.993Z,12.17
2017-07-23T12:56:25.499Z,12.67
2017-07-23T12:58:52.792Z,11.13
2017-07-23T13:01:19.233Z,10.33
2017-07-23T13:03:45.873Z,10.87
2017-07-23T13:06:12.432Z,11.13
2017-07-23T13:08:38.993Z,12.30
2017-07-23T13:11:06.583Z,10.07
2017-07-23T13:13:33.243Z,11.47
2017-07-23T13:15:59.703Z,11.00
2017-07-23T13:18:26.252Z,10.30
2017-07-23T13:20:53.509Z,11.00
2017-07-23T13:23:19.999Z,11.37
2017-07-23T13:25:53.538Z,10.03
2017-07-23T13:28:20.035Z,10.20
2017-07-23T13:30:47.521Z,10.07
2017-07-23T13:33:14.867Z,9.17
2017-07-23T13:35:41.420Z,9.90
2017-07-23T13:38:09.631Z,10.37
2017-07-23T13:40:36.108Z,9.47
2017-07-23T13:43:02.495Z,9.33
2017-07-23T13:45:29.171Z,8.50
2017-07-23T13:47:55.560Z,9.13
2017-07-23T13:50:22.183Z,9.30
2017-07-23T13:52:48.647Z,8.60
2017-07-23T13:55:15.039Z,9.13
2017-07-23T13:57:41.500Z,9.90
2017-07-23T14:00:14.998Z,9.30
2017-07-23T14:02:41.412Z,9.93
2017-07-23T14:05:07.794Z,8.07
2017-07-23T14:07:34.187Z,9.80
2017-07-23T14:10:01.522Z,8.30
2017-07-23T14:12:28.848Z,8.87
2017-07-23T14:14:55.252Z,9.07
2017-07-23T14:17:21.676Z,8.20
2017-07-23T14:19:48.091Z,8.47
2017-07-23T14:22:15.219Z,8.17
2017-07-23T14:24:41.634Z,8.07
2017-07-23T14:27:08.078Z,8.13
2017-07-23T14:29:34.495Z,8.40
2017-07-23T14:32:00.883Z,8.40
2017-07-23T14:34:27.295Z,7.37
2017-07-23T14:36:54.435Z,7.10
2017-07-23T14:39:20.829Z,8.17
2017-07-23T14:41:47.342Z,6.77
2017-07-23T14:44:13.778Z,8.40
2017-07-23T14:46:40.201Z,7.80
2017-07-23T14:49:06.646Z,7.70
2017-07-23T14:51:33.033Z,7.97
2017-07-23T14:54:00.237Z,7.30
2017-07-23T14:56:26.608Z,7.53
2017-07-23T14:58:53.002Z,6.97
2017-07-23T15:01:19.403Z,7.23
2017-07-23T15:03:45.774Z,7.87
2017-07-23T15:06:12.754Z,6.20
2017-07-23T15:08:39.191Z,7.20
2017-07-23T15:11:06.476Z,7.93
2017-07-23T15:13:32.854Z,7.00
2017-07-23T15:15:59.317Z,8.13
2017-07-23T15:18:25.723Z,7.40
2017-07-23T15:20:52.133Z,6.83
2017-07-23T15:23:18.546Z,6.23
2017-07-23T15:25:44.919Z,7.10
2017-07-23T15:28:11.374Z,7.73
2017-07-23T15:30:37.788Z,8.33
2017-07-23T15:33:04.242Z,7.83
2017-07-23T15:35:30.684Z,8.13
2017-07-23T15:37:57.154Z,8.37
2017-07-23T15:40:23.690Z,8.70
2017-07-23T15:42:50.063Z,7.43
2017-07-23T15:45:16.554Z,7.77
2017-07-23T15:47:43.228Z,9.10
2017-07-23T15:50:09.851Z,8.93
2017-07-23T15:52:37.817Z,8.20
2017-07-23T15:55:05.008Z,8.03
2017-07-23T15:57:32.012Z,7.90
2017-07-23T15:59:58.619Z,7.80
2017-07-23T16:02:25.089Z,7.83
2017-07-23T16:04:51.526Z,8.17
2017-07-23T16:07:18.237Z,7.57
2017-07-23T16:09:44.648Z,8.57
2017-07-23T16:12:11.071Z,7.77
2017-07-23T16:14:54.305Z,7.97
2017-07-23T16:17:20.821Z,7.90
2017-07-23T16:19:47.900Z,11.07
2017-07-23T16:22:14.424Z,7.77
2017-07-23T16:24:41.043Z,7.70
2017-07-23T16:27:08.032Z,7.93
2017-07-23T16:29:34.601Z,7.70
2017-07-23T16:32:02.030Z,7.70
2017-07-23T16:34:29.351Z,7.63
2017-07-23T16:36:55.931Z,6.80
2017-07-23T16:39:23.307Z,8.63
2017-07-23T16:41:49.927Z,8.20
2017-07-23T16:44:16.383Z,7.57
2017-07-23T16:46:42.856Z,7.90
2017-07-23T16:49:09.310Z,7.90
2017-07-23T16:51:35.887Z,7.57
2017-07-23T16:54:03.047Z,7.90
2017-07-23T16:56:29.835Z,7.63
2017-07-23T16:58:56.220Z,8.10
2017-07-23T17:01:22.767Z,8.80
2017-07-23T17:03:49.882Z,7.90
2017-07-23T17:06:16.243Z,7.60
2017-07-23T17:08:43.470Z,7.13
2017-07-23T17:11:09.863Z,7.50
2017-07-23T17:13:36.302Z,7.57
2017-07-23T17:16:02.736Z,8.23
2017-07-23T17:18:29.186Z,7.60
2017-07-23T17:20:55.600Z,8.23
2017-07-23T17:23:22.007Z,7.80
2017-07-23T17:25:48.403Z,6.63
2017-07-23T17:28:14.802Z,8.40
2017-07-23T17:30:48.166Z,8.23
2017-07-23T17:33:14.576Z,8.90
2017-07-23T17:35:41.004Z,7.80
2017-07-23T17:38:07.390Z,8.00
2017-07-23T17:40:33.798Z,8.00
2017-07-23T17:43:00.183Z,9.03
2017-07-23T17:45:26.572Z,8.60
2017-07-23T17:47:52.977Z,8.53
2017-07-23T17:50:20.115Z,7.83
2017-07-23T17:52:46.663Z,7.67
2017-07-23T17:55:13.342Z,8.47
2017-07-23T17:57:39.718Z,7.67
2017-07-23T18:00:06.160Z,8.93
2017-07-23T18:02:32.591Z,8.40
2017-07-23T18:04:59.799Z,8.33
2017-07-23T18:07:26.338Z,8.67
2017-07-23T18:09:53.168Z,8.23
2017-07-23T18:12:19.602Z,9.70
2017-07-23T18:14:46.023Z,10.60
2017-07-23T18:17:12.500Z,10.67
2017-07-23T18:19:38.870Z,10.40
2017-07-23T18:22:05.645Z,10.60
2017-07-23T18:24:32.837Z,11.33
2017-07-23T18:26:59.970Z,13.70
2017-07-23T18:29:26.795Z,12.40
2017-07-23T18:31:53.324Z,11.80
2017-07-23T18:34:19.706Z,13.03
2017-07-23T18:36:46.860Z,12.70
2017-07-23T18:39:13.979Z,10.00
2017-07-23T18:41:40.416Z,6.70
2017-07-23T18:44:06.941Z,6.20
2017-07-23T18:46:33.302Z,6.60
2017-07-23T18:49:00.458Z,6.40
2017-07-23T18:51:27.667Z,6.60
2017-07-23T18:53:54.836Z,7.57
2017-07-23T18:56:21.228Z,6.50
2017-07-23T18:58:47.638Z,6.80
2017-07-23T19:01:14.101Z,6.17
2017-07-23T19:03:40.574Z,5.63
2017-07-23T19:06:07.135Z,6.93
2017-07-23T19:08:34.129Z,5.73
2017-07-23T19:11:00.547Z,5.13
2017-07-23T19:13:27.340Z,6.90
2017-07-23T19:15:53.792Z,7.53
2017-07-23T19:18:20.311Z,5.77
2017-07-23T19:20:46.849Z,6.80
2017-07-23T19:23:14.041Z,6.90
2017-07-23T19:25:41.271Z,6.87
2017-07-23T19:28:07.676Z,7.50
2017-07-23T19:30:34.106Z,6.97
2017-07-23T19:33:00.470Z,8.00
2017-07-23T19:35:26.949Z,6.80
2017-07-23T19:37:53.327Z,6.80
2017-07-23T19:40:20.549Z,8.23
2017-07-23T19:42:47.019Z,7.70
2017-07-23T19:45:13.465Z,8.13
2017-07-23T19:47:39.882Z,8.40
2017-07-23T19:50:06.363Z,7.60
2017-07-23T19:52:33.093Z,7.80
2017-07-23T19:54:59.467Z,8.20
2017-07-23T19:57:26.608Z,9.63
2017-07-23T19:59:53.285Z,10.00
2017-07-23T20:02:19.744Z,8.40
2017-07-23T20:04:46.319Z,7.90
2017-07-23T20:07:12.762Z,7.10
2017-07-23T20:09:39.934Z,8.27
2017-07-23T20:12:06.344Z,8.93
2017-07-23T20:14:32.738Z,10.23
2017-07-23T20:16:59.998Z,9.50
2017-07-23T20:19:26.402Z,9.03
2017-07-23T20:21:52.802Z,9.47
2017-07-23T20:24:20.054Z,9.07
2017-07-23T20:26:46.468Z,8.20
2017-07-23T20:29:12.836Z,8.33
2017-07-23T20:31:39.233Z,8.10
2017-07-23T20:34:05.680Z,7.80
2017-07-23T20:36:32.820Z,8.33
2017-07-23T20:38:59.203Z,8.23
2017-07-23T20:41:25.692Z,9.70
2017-07-23T20:43:52.835Z,8.70
2017-07-23T20:46:19.955Z,8.07
2017-07-23T20:48:46.366Z,8.40
2017-07-23T20:51:12.755Z,9.07
2017-07-23T20:53:39.913Z,8.90
2017-07-23T20:56:07.028Z,7.77
2017-07-23T20:58:33.419Z,8.17
2017-07-23T21:00:59.795Z,8.50
2017-07-23T21:03:26.211Z,8.37
2017-07-23T21:05:52.592Z,8.90
2017-07-23T21:08:19.725Z,9.00
2017-07-23T21:10:46.863Z,8.83
2017-07-23T21:13:13.248Z,7.80
2017-07-23T21:15:39.671Z,9.33
2017-07-23T21:18:06.095Z,9.10
2017-07-23T21:20:32.486Z,9.40
2017-07-23T21:22:58.932Z,10.00
2017-07-23T21:25:32.338Z,9.73
2017-07-23T21:27:58.750Z,9.50
2017-07-23T21:30:25.154Z,9.70
2017-07-23T21:32:51.534Z,9.93
2017-07-23T21:35:18.708Z,9.80
2017-07-23T21:37:45.106Z,10.43
2017-07-23T21:40:11.503Z,10.17
2017-07-23T21:42:37.936Z,10.33
2017-07-23T21:45:04.359Z,10.27
2017-07-23T21:47:30.916Z,8.80
2017-07-23T21:49:57.283Z,8.90
2017-07-23T21:52:24.435Z,9.17
2017-07-23T21:54:51.590Z,9.33
2017-07-23T21:57:18.784Z,9.13
2017-07-23T21:59:45.203Z,11.20
2017-07-23T22:02:11.651Z,9.13
2017-07-23T22:04:38.034Z,9.70
2017-07-23T22:07:05.159Z,9.17
2017-07-23T22:09:31.574Z,9.80
2017-07-23T22:11:57.967Z,10.30
2017-07-23T22:14:24.376Z,10.20
2017-07-23T22:16:51.527Z,10.17
2017-07-23T22:19:18.715Z,10.57
2017-07-23T22:21:45.327Z,9.43
2017-07-23T22:24:13.311Z,9.33
2017-07-23T22:26:39.735Z,8.97
2017-07-23T22:29:06.143Z,10.03
2017-07-23T22:31:32.575Z,9.30
2017-07-23T22:33:59.722Z,9.30
2017-07-23T22:36:26.131Z,9.70
2017-07-23T22:38:52.519Z,9.47
2017-07-23T22:41:18.895Z,8.03
2017-07-23T22:43:45.299Z,8.40
2017-07-23T22:46:11.655Z,8.20
2017-07-23T22:48:38.070Z,8.40
2017-07-23T22:51:04.510Z,8.80
2017-07-23T22:53:30.883Z,8.67
2017-07-23T22:55:57.294Z,8.47
2017-07-23T22:58:23.671Z,9.53
2017-07-23T23:00:50.056Z,9.30
2017-07-23T23:03:16.631Z,8.00
2017-07-23T23:05:43.788Z,9.30
2017-07-23T23:08:10.177Z,9.57
2017-07-23T23:10:36.607Z,10.00
2017-07-23T23:13:03.004Z,8.20
2017-07-23T23:15:37.207Z,8.43
2017-07-23T23:18:03.606Z,8.07
2017-07-23T23:20:30.147Z,9.00
2017-07-23T23:22:56.519Z,8.43
2017-07-23T23:25:22.940Z,8.97
2017-07-23T23:27:49.340Z,10.30
2017-07-23T23:30:15.755Z,9.80
2017-07-23T23:32:42.159Z,9.57
2017-07-23T23:35:08.606Z,9.23
2017-07-23T23:37:35.002Z,10.33
2017-07-23T23:40:01.426Z,9.57
2017-07-23T23:42:27.908Z,10.07
2017-07-23T23:44:54.310Z,9.80
2017-07-23T23:47:20.727Z,10.10
2017-07-23T23:49:47.135Z,9.30
2017-07-23T23:52:13.555Z,9.90
2017-07-23T23:54:40.107Z,9.37
2017-07-23T23:57:07.268Z,10.83
2017-07-23T23:59:33.658Z,9.90
